| time (UTC) | temp F | wind direction | speed MPH | gust MPH | rain 1hr in | rain 24hr in | rain mn in | humidity % | barometer mb |
| 20260504231154 | 61 | 238 | 7.0 | 14.0 | 0.00 | 0.00 | 0.00 | 78 | 1014.7 |
| 20260504230254 | 62 | 251 | 6.0 | 15.0 | 0.00 | 0.00 | 0.00 | 78 | 1014.8 |
| 20260504225355 | 62 | 238 | 7.0 | 13.0 | 0.00 | 0.00 | 0.00 | 77 | 1014.9 |
| 20260504224454 | 62 | 245 | 5.0 | 13.0 | 0.00 | 0.00 | 0.00 | 77 | 1014.8 |
| 20260504221754 | 63 | 238 | 8.0 | 14.0 | 0.00 | 0.00 | 0.00 | 76 | 1015.1 |
| 20260504220854 | 63 | 229 | 10.0 | 14.0 | 0.00 | 0.00 | 0.00 | 72 | 1015.3 |
| 20260504215954 | 64 | 245 | 8.0 | 13.0 | 0.00 | 0.00 | 0.00 | 68 | 1015.3 |
| 20260504215054 | 64 | 240 | 6.0 | 12.0 | 0.00 | 0.00 | 0.00 | 67 | 1015.3 |
| 20260504214154 | 64 | 239 | 6.0 | 13.0 | 0.00 | 0.00 | 0.00 | 67 | 1015.4 |
| 20260504212354 | 64 | 237 | 8.0 | 15.0 | 0.00 | 0.00 | 0.00 | 70 | 1015.7 |
| 20260504211454 | 64 | 239 | 8.0 | 14.0 | 0.00 | 0.00 | 0.00 | 69 | 1015.7 |
| 20260504210554 | 64 | 240 | 5.0 | 16.0 | 0.00 | 0.00 | 0.00 | 72 | 1015.7 |
| 20260504204754 | 64 | 264 | 7.0 | 14.0 | 0.00 | 0.00 | 0.00 | 72 | 1015.7 |
| 20260504203854 | 64 | 249 | 7.0 | 15.0 | 0.00 | 0.00 | 0.00 | 71 | 1015.7 |
| 20260504202954 | 64 | 232 | 7.0 | 13.0 | 0.00 | 0.00 | 0.00 | 72 | 1015.7 |
| 20260504202054 | 64 | 262 | 9.0 | 15.0 | 0.00 | 0.00 | 0.00 | 70 | 1015.7 |
| 20260504201154 | 64 | 221 | 8.0 | 13.0 | 0.00 | 0.00 | 0.00 | 73 | 1015.7 |
| 20260504200254 | 64 | 228 | 6.0 | 14.0 | 0.00 | 0.00 | 0.00 | 73 | 1015.7 |
| 20260504195354 | 64 | 239 | 6.0 | 13.0 | 0.00 | 0.00 | 0.00 | 72 | 1015.7 |
| 20260504194454 | 63 | 241 | 8.0 | 14.0 | 0.00 | 0.00 | 0.00 | 72 | 1015.5 |
| 20260504193554 | 63 | 247 | 7.0 | 13.0 | 0.00 | 0.00 | 0.00 | 73 | 1015.7 |
| 20260504192524 | 63 | 232 | 7.0 | 13.0 | 0.00 | 0.00 | 0.00 | 76 | 1015.6 |
| 20260504191623 | 62 | 224 | 5.0 | 12.0 | 0.00 | 0.00 | 0.00 | 77 | 1015.7 |
| 20260504190724 | 63 | 227 | 7.0 | 13.0 | 0.00 | 0.00 | 0.00 | 75 | 1015.7 |
| 20260504185824 | 63 | 232 | 6.0 | 14.0 | 0.00 | 0.00 | 0.00 | 74 | 1015.6 |
| 20260504184924 | 63 | 238 | 6.0 | 12.0 | 0.00 | 0.00 | 0.00 | 73 | 1015.6 |
| 20260504184023 | 63 | 217 | 7.0 | 14.0 | 0.00 | 0.00 | 0.00 | 73 | 1015.7 |
| 20260504183124 | 63 | 221 | 7.0 | 12.0 | 0.00 | 0.00 | 0.00 | 74 | 1015.7 |
| 20260504182223 | 62 | 226 | 7.0 | 12.0 | 0.00 | 0.00 | 0.00 | 74 | 1015.7 |
| 20260504181323 | 63 | 211 | 6.0 | 10.0 | 0.00 | 0.00 | 0.00 | 72 | 1015.6 |
| 20260504180423 | 63 | 235 | 5.0 | 11.0 | 0.00 | 0.00 | 0.00 | 72 | 1015.5 |
| 20260504175524 | 63 | 218 | 6.0 | 13.0 | 0.00 | 0.00 | 0.00 | 72 | 1015.6 |
| 20260504174623 | 62 | 214 | 5.0 | 11.0 | 0.00 | 0.00 | 0.00 | 73 | 1015.4 |
| 20260504173723 | 63 | 245 | 6.0 | 12.0 | 0.00 | 0.00 | 0.00 | 73 | 1015.5 |
| 20260504172824 | 63 | 223 | 4.0 | 11.0 | 0.00 | 0.00 | 0.00 | 73 | 1015.2 |
| 20260504171923 | 64 | 231 | 4.0 | 10.0 | 0.00 | 0.00 | 0.00 | 70 | 1015.3 |
| 20260504171024 | 64 | 233 | 3.0 | 9.0 | 0.00 | 0.00 | 0.00 | 61 | 1015.1 |
| 20260504170124 | 64 | 215 | 4.0 | 9.0 | 0.00 | 0.00 | 0.00 | 62 | 1015.1 |
| 20260504160317 | 60 | 239 | 4.0 | 8.0 | 0.00 | 0.00 | 0.00 | 75 | 1015.1 |
| 20260504150917 | 58 | 309 | 1.0 | 3.0 | 0.00 | 0.00 | 0.00 | 72 | 1014.9 |
| 20260504140617 | 53 | 0 | 0.0 | 1.0 | 0.00 | 0.00 | 0.00 | 79 | 1014.3 |
| 20260504130304 | 54 | 286 | 1.0 | 4.0 | 0.00 | 0.00 | 0.00 | 81 | 1014.1 |
| 20260504110438 | 54 | 287 | 1.0 | 5.0 | 0.00 | 0.00 | 0.00 | 75 | 1013.8 |
| 20260504100138 | 55 | 277 | 1.0 | 3.0 | 0.00 | 0.00 | 0.00 | 76 | 1014.3 |
| 20260504081338 | 57 | 299 | 1.0 | 3.0 | 0.00 | 0.00 | 0.00 | 73 | 1015.1 |
| 20260504080438 | 57 | 274 | 1.0 | 3.0 | 0.00 | 0.00 | 0.00 | 74 | 1015.3 |
| 20260504070138 | 58 | 254 | 1.0 | 6.0 | 0.00 | 0.00 | 0.00 | 79 | 1014.7 |
| 20260504050438 | 61 | 299 | 3.0 | 9.0 | 0.00 | 0.00 | 0.00 | 61 | 1014.4 |
| 20260504045538 | 61 | 288 | 3.0 | 7.0 | 0.00 | 0.00 | 0.00 | 63 | 1014.6 |
| 20260504044638 | 61 | 288 | 1.0 | 7.0 | 0.00 | 0.00 | 0.00 | 65 | 1014.7 |
| 20260504043738 | 61 | 301 | 4.0 | 9.0 | 0.00 | 0.00 | 0.00 | 64 | 1014.7 |
| 20260504042838 | 61 | 301 | 2.0 | 6.0 | 0.00 | 0.00 | 0.00 | 65 | 1014.5 |
| 20260504041938 | 61 | 293 | 2.0 | 6.0 | 0.00 | 0.00 | 0.00 | 66 | 1014.1 |
| 20260504041038 | 61 | 302 | 3.0 | 9.0 | 0.00 | 0.00 | 0.00 | 66 | 1014.1 |
| 20260504040138 | 61 | 292 | 2.0 | 8.0 | 0.00 | 0.00 | 0.00 | 68 | 1014.1 |
| 20260504035238 | 61 | 281 | 1.0 | 4.0 | 0.00 | 0.00 | 0.00 | 72 | 1013.9 |
| 20260504034338 | 60 | 285 | 2.0 | 5.0 | 0.00 | 0.00 | 0.00 | 71 | 1013.7 |
| 20260504033437 | 60 | 0 | 0.0 | 2.0 | 0.00 | 0.00 | 0.00 | 78 | 1013.5 |
| 20260504032538 | 60 | 252 | 1.0 | 3.0 | 0.00 | 0.00 | 0.00 | 81 | 1013.7 |
| 20260504031638 | 60 | 0 | 0.0 | 2.0 | 0.00 | 0.00 | 0.00 | 81 | 1013.4 |
| 20260504030341 | 60 | 248 | 1.0 | 4.0 | 0.00 | 0.00 | 0.00 | 81 | 1013.4 |
| 20260504025442 | 60 | 243 | 1.0 | 3.0 | 0.00 | 0.00 | 0.00 | 81 | 1013.4 |
| 20260504024541 | 60 | 0 | 0.0 | 8.0 | 0.00 | 0.00 | 0.00 | 81 | 1013.3 |
| 20260504023642 | 60 | 244 | 2.0 | 6.0 | 0.00 | 0.00 | 0.00 | 81 | 1013.3 |
| 20260504022741 | 60 | 243 | 4.0 | 7.0 | 0.00 | 0.00 | 0.00 | 81 | 1013.3 |
| 20260504021842 | 60 | 257 | 3.0 | 7.0 | 0.00 | 0.00 | 0.00 | 81 | 1013.6 |
| 20260504020941 | 60 | 270 | 3.0 | 10.0 | 0.00 | 0.00 | 0.00 | 81 | 1013.3 |
| 20260504020042 | 60 | 255 | 3.0 | 8.0 | 0.00 | 0.00 | 0.00 | 81 | 1013.4 |
| 20260504015141 | 60 | 235 | 4.0 | 11.0 | 0.00 | 0.00 | 0.00 | 80 | 1013.6 |
| 20260504014242 | 60 | 252 | 4.0 | 9.0 | 0.00 | 0.00 | 0.00 | 78 | 1013.7 |
| 20260504013341 | 60 | 247 | 5.0 | 11.0 | 0.00 | 0.00 | 0.00 | 78 | 1013.3 |
| 20260504012442 | 60 | 238 | 3.0 | 11.0 | 0.00 | 0.00 | 0.00 | 78 | 1013.0 |
| 20260504011542 | 60 | 238 | 5.0 | 11.0 | 0.00 | 0.00 | 0.00 | 77 | 1013.4 |
| 20260504010641 | 60 | 235 | 5.0 | 10.0 | 0.00 | 0.00 | 0.00 | 76 | 1013.3 |
| 20260504005741 | 60 | 238 | 6.0 | 11.0 | 0.00 | 0.00 | 0.00 | 76 | 1013.4 |
| 20260504004841 | 61 | 249 | 4.0 | 11.0 | 0.00 | 0.00 | 0.00 | 78 | 1013.3 |
| 20260504003942 | 61 | 249 | 6.0 | 11.0 | 0.00 | 0.00 | 0.00 | 77 | 1013.4 |
| 20260504003041 | 61 | 244 | 5.0 | 11.0 | 0.00 | 0.00 | 0.00 | 77 | 1013.2 |
| 20260504002142 | 61 | 238 | 4.0 | 12.0 | 0.00 | 0.00 | 0.00 | 76 | 1013.3 |
| 20260504001241 | 61 | 221 | 6.0 | 10.0 | 0.00 | 0.00 | 0.00 | 76 | 1013.2 |
| 20260504000341 | 61 | 248 | 4.0 | 12.0 | 0.00 | 0.00 | 0.00 | 78 | 1013.3 |
| 20260503235441 | 62 | 232 | 5.0 | 9.0 | 0.00 | 0.00 | 0.00 | 77 | 1013.2 |
| 20260503232741 | 62 | 239 | 4.0 | 11.0 | 0.00 | 0.00 | 0.00 | 74 | 1013.0 |